sensor_id;sensor_type;location;lat;lon;timestamp;temperature;humidity
44271;DHT22;29963;44.594;11.368;2023-08-07T00:02:25;20.00;99.90
44271;DHT22;29963;44.594;11.368;2023-08-07T00:04:51;19.90;99.90
44271;DHT22;29963;44.594;11.368;2023-08-07T00:07:16;19.80;99.90
44271;DHT22;29963;44.594;11.368;2023-08-07T00:09:43;19.90;99.90
44271;DHT22;29963;44.594;11.368;2023-08-07T00:12:09;20.00;99.90
44271;DHT22;29963;44.594;11.368;2023-08-07T00:14:34;20.10;99.90
44271;DHT22;29963;44.594;11.368;2023-08-07T00:17:00;20.10;99.90
44271;DHT22;29963;44.594;11.368;2023-08-07T00:19:26;20.20;99.90
44271;DHT22;29963;44.594;11.368;2023-08-07T00:21:51;20.10;99.90
44271;DHT22;29963;44.594;11.368;2023-08-07T00:24:17;20.10;99.90
44271;DHT22;29963;44.594;11.368;2023-08-07T00:26:42;20.00;99.90
44271;DHT22;29963;44.594;11.368;2023-08-07T00:29:08;20.00;99.90
44271;DHT22;29963;44.594;11.368;2023-08-07T00:31:33;20.00;99.90
44271;DHT22;29963;44.594;11.368;2023-08-07T00:33:59;20.00;99.90
44271;DHT22;29963;44.594;11.368;2023-08-07T00:36:25;20.00;99.90
44271;DHT22;29963;44.594;11.368;2023-08-07T00:38:53;20.00;99.90
44271;DHT22;29963;44.594;11.368;2023-08-07T00:41:20;19.90;99.90
44271;DHT22;29963;44.594;11.368;2023-08-07T00:43:46;19.90;99.90
44271;DHT22;29963;44.594;11.368;2023-08-07T00:46:11;19.80;99.90
44271;DHT22;29963;44.594;11.368;2023-08-07T00:48:37;19.60;99.90
44271;DHT22;29963;44.594;11.368;2023-08-07T00:51:03;19.60;99.90
44271;DHT22;29963;44.594;11.368;2023-08-07T00:53:30;19.70;99.90
44271;DHT22;29963;44.594;11.368;2023-08-07T00:55:56;19.70;99.90
44271;DHT22;29963;44.594;11.368;2023-08-07T00:58:23;19.80;99.90
44271;DHT22;29963;44.594;11.368;2023-08-07T01:00:49;19.80;99.90
44271;DHT22;29963;44.594;11.368;2023-08-07T01:03:14;19.70;99.90
44271;DHT22;29963;44.594;11.368;2023-08-07T01:05:40;19.50;99.90
44271;DHT22;29963;44.594;11.368;2023-08-07T01:08:06;19.40;99.90
44271;DHT22;29963;44.594;11.368;2023-08-07T01:13:40;19.40;99.90
44271;DHT22;29963;44.594;11.368;2023-08-07T01:16:26;19.60;99.90
44271;DHT22;29963;44.594;11.368;2023-08-07T01:18:54;19.70;99.90
44271;DHT22;29963;44.594;11.368;2023-08-07T01:21:21;19.60;99.90
44271;DHT22;29963;44.594;11.368;2023-08-07T01:23:47;19.50;99.90
44271;DHT22;29963;44.594;11.368;2023-08-07T01:26:14;19.50;99.90
44271;DHT22;29963;44.594;11.368;2023-08-07T01:29:05;19.40;99.90
44271;DHT22;29963;44.594;11.368;2023-08-07T01:31:33;19.50;99.90
44271;DHT22;29963;44.594;11.368;2023-08-07T01:34:05;19.40;99.90
44271;DHT22;29963;44.594;11.368;2023-08-07T01:36:33;19.40;99.90
44271;DHT22;29963;44.594;11.368;2023-08-07T01:39:01;19.40;99.90
44271;DHT22;29963;44.594;11.368;2023-08-07T01:41:28;19.40;99.90
44271;DHT22;29963;44.594;11.368;2023-08-07T01:43:54;19.30;99.90
44271;DHT22;29963;44.594;11.368;2023-08-07T01:46:20;19.30;99.90
44271;DHT22;29963;44.594;11.368;2023-08-07T01:48:46;19.40;99.90
44271;DHT22;29963;44.594;11.368;2023-08-07T01:51:12;19.40;99.90
44271;DHT22;29963;44.594;11.368;2023-08-07T01:53:38;19.40;99.90
44271;DHT22;29963;44.594;11.368;2023-08-07T01:56:03;19.40;99.90
44271;DHT22;29963;44.594;11.368;2023-08-07T01:58:29;19.40;99.90
44271;DHT22;29963;44.594;11.368;2023-08-07T02:00:55;19.40;99.90
44271;DHT22;29963;44.594;11.368;2023-08-07T02:03:20;19.30;99.90
44271;DHT22;29963;44.594;11.368;2023-08-07T02:05:46;19.30;99.90
44271;DHT22;29963;44.594;11.368;2023-08-07T02:08:12;19.30;99.90
44271;DHT22;29963;44.594;11.368;2023-08-07T02:10:38;19.40;99.90
44271;DHT22;29963;44.594;11.368;2023-08-07T02:13:04;19.40;99.90
44271;DHT22;29963;44.594;11.368;2023-08-07T02:15:29;19.40;99.90
44271;DHT22;29963;44.594;11.368;2023-08-07T02:17:55;19.30;99.90
44271;DHT22;29963;44.594;11.368;2023-08-07T02:20:20;19.20;99.90
44271;DHT22;29963;44.594;11.368;2023-08-07T02:22:46;19.10;99.90
44271;DHT22;29963;44.594;11.368;2023-08-07T02:25:12;19.10;99.90
44271;DHT22;29963;44.594;11.368;2023-08-07T02:27:38;19.10;99.90
44271;DHT22;29963;44.594;11.368;2023-08-07T02:30:04;18.90;99.90
44271;DHT22;29963;44.594;11.368;2023-08-07T02:32:30;19.00;99.90
44271;DHT22;29963;44.594;11.368;2023-08-07T02:34:56;19.00;99.90
44271;DHT22;29963;44.594;11.368;2023-08-07T02:37:21;18.90;99.90
44271;DHT22;29963;44.594;11.368;2023-08-07T02:39:47;18.80;99.90
44271;DHT22;29963;44.594;11.368;2023-08-07T02:42:13;18.70;99.90
44271;DHT22;29963;44.594;11.368;2023-08-07T02:44:39;18.70;99.90
44271;DHT22;29963;44.594;11.368;2023-08-07T02:47:04;18.70;99.90
44271;DHT22;29963;44.594;11.368;2023-08-07T02:49:30;18.70;99.90
44271;DHT22;29963;44.594;11.368;2023-08-07T02:51:55;18.70;99.90
44271;DHT22;29963;44.594;11.368;2023-08-07T02:54:21;18.70;99.90
44271;DHT22;29963;44.594;11.368;2023-08-07T02:56:46;18.80;99.90
44271;DHT22;29963;44.594;11.368;2023-08-07T02:59:14;18.70;99.90
44271;DHT22;29963;44.594;11.368;2023-08-07T03:01:40;18.80;99.90
44271;DHT22;29963;44.594;11.368;2023-08-07T03:04:06;18.80;99.90
44271;DHT22;29963;44.594;11.368;2023-08-07T03:06:31;18.80;99.90
44271;DHT22;29963;44.594;11.368;2023-08-07T03:08:57;18.90;99.90
44271;DHT22;29963;44.594;11.368;2023-08-07T03:11:24;18.90;99.90
44271;DHT22;29963;44.594;11.368;2023-08-07T03:13:50;19.00;99.90
44271;DHT22;29963;44.594;11.368;2023-08-07T03:16:15;19.00;99.90
44271;DHT22;29963;44.594;11.368;2023-08-07T03:18:41;19.00;99.90
44271;DHT22;29963;44.594;11.368;2023-08-07T03:21:07;19.00;99.90
44271;DHT22;29963;44.594;11.368;2023-08-07T03:23:32;18.90;99.90
44271;DHT22;29963;44.594;11.368;2023-08-07T03:26:16;18.80;99.90
44271;DHT22;29963;44.594;11.368;2023-08-07T03:28:41;18.80;99.90
44271;DHT22;29963;44.594;11.368;2023-08-07T03:31:07;18.80;99.90
44271;DHT22;29963;44.594;11.368;2023-08-07T03:33:33;18.90;99.90
44271;DHT22;29963;44.594;11.368;2023-08-07T03:35:58;18.80;99.90
44271;DHT22;29963;44.594;11.368;2023-08-07T03:38:24;18.80;99.90
44271;DHT22;29963;44.594;11.368;2023-08-07T03:40:49;18.70;99.90
44271;DHT22;29963;44.594;11.368;2023-08-07T03:43:15;18.70;99.90
44271;DHT22;29963;44.594;11.368;2023-08-07T03:45:41;18.80;99.90
44271;DHT22;29963;44.594;11.368;2023-08-07T03:48:06;18.90;99.90
44271;DHT22;29963;44.594;11.368;2023-08-07T03:50:32;18.80;99.90
44271;DHT22;29963;44.594;11.368;2023-08-07T03:53:00;18.80;99.90
44271;DHT22;29963;44.594;11.368;2023-08-07T03:55:26;18.80;99.90
44271;DHT22;29963;44.594;11.368;2023-08-07T03:57:52;18.70;99.90
44271;DHT22;29963;44.594;11.368;2023-08-07T04:00:17;18.70;99.90
44271;DHT22;29963;44.594;11.368;2023-08-07T04:02:44;18.60;99.90
44271;DHT22;29963;44.594;11.368;2023-08-07T04:05:10;18.50;99.90
44271;DHT22;29963;44.594;11.368;2023-08-07T04:07:36;18.50;99.90
44271;DHT22;29963;44.594;11.368;2023-08-07T04:10:01;18.40;99.90
44271;DHT22;29963;44.594;11.368;2023-08-07T04:12:27;18.50;99.90
44271;DHT22;29963;44.594;11.368;2023-08-07T04:14:53;18.50;99.90
44271;DHT22;29963;44.594;11.368;2023-08-07T04:17:18;18.40;99.90
44271;DHT22;29963;44.594;11.368;2023-08-07T04:19:44;18.40;99.90
44271;DHT22;29963;44.594;11.368;2023-08-07T04:22:10;18.40;99.90
44271;DHT22;29963;44.594;11.368;2023-08-07T04:24:35;18.10;99.90
44271;DHT22;29963;44.594;11.368;2023-08-07T04:27:01;18.50;99.90
44271;DHT22;29963;44.594;11.368;2023-08-07T04:29:26;18.50;99.90
44271;DHT22;29963;44.594;11.368;2023-08-07T04:31:52;18.50;99.90
44271;DHT22;29963;44.594;11.368;2023-08-07T04:34:18;18.60;99.90
44271;DHT22;29963;44.594;11.368;2023-08-07T04:36:43;18.70;99.90
44271;DHT22;29963;44.594;11.368;2023-08-07T04:39:09;18.70;99.90
44271;DHT22;29963;44.594;11.368;2023-08-07T04:41:34;18.70;99.90
44271;DHT22;29963;44.594;11.368;2023-08-07T04:44:00;18.70;99.90
44271;DHT22;29963;44.594;11.368;2023-08-07T04:46:26;18.70;99.90
44271;DHT22;29963;44.594;11.368;2023-08-07T04:48:51;18.70;99.90
44271;DHT22;29963;44.594;11.368;2023-08-07T04:51:18;18.70;99.90
44271;DHT22;29963;44.594;11.368;2023-08-07T04:53:43;18.80;99.90
44271;DHT22;29963;44.594;11.368;2023-08-07T04:56:09;18.90;99.90
44271;DHT22;29963;44.594;11.368;2023-08-07T04:58:34;18.90;99.90
44271;DHT22;29963;44.594;11.368;2023-08-07T05:01:00;19.00;99.90
44271;DHT22;29963;44.594;11.368;2023-08-07T05:03:26;19.00;99.90
44271;DHT22;29963;44.594;11.368;2023-08-07T05:05:59;19.10;99.90
44271;DHT22;29963;44.594;11.368;2023-08-07T05:08:25;19.00;99.90
44271;DHT22;29963;44.594;11.368;2023-08-07T05:10:51;19.10;99.90
44271;DHT22;29963;44.594;11.368;2023-08-07T05:13:16;19.00;99.90
44271;DHT22;29963;44.594;11.368;2023-08-07T05:15:42;19.00;99.90
44271;DHT22;29963;44.594;11.368;2023-08-07T05:18:07;19.10;99.90
44271;DHT22;29963;44.594;11.368;2023-08-07T05:20:33;19.10;99.90
44271;DHT22;29963;44.594;11.368;2023-08-07T05:22:59;19.10;99.90
44271;DHT22;29963;44.594;11.368;2023-08-07T05:25:25;19.10;99.90
44271;DHT22;29963;44.594;11.368;2023-08-07T05:27:51;19.10;99.90
44271;DHT22;29963;44.594;11.368;2023-08-07T05:30:16;19.20;99.90
44271;DHT22;29963;44.594;11.368;2023-08-07T05:32:42;19.20;99.90
44271;DHT22;29963;44.594;11.368;2023-08-07T05:35:08;19.20;99.90
44271;DHT22;29963;44.594;11.368;2023-08-07T05:37:34;19.10;99.90
44271;DHT22;29963;44.594;11.368;2023-08-07T05:40:01;19.10;99.90
44271;DHT22;29963;44.594;11.368;2023-08-07T05:42:27;19.20;99.90
44271;DHT22;29963;44.594;11.368;2023-08-07T05:44:53;19.30;99.90
44271;DHT22;29963;44.594;11.368;2023-08-07T05:47:19;19.30;99.90
44271;DHT22;29963;44.594;11.368;2023-08-07T05:49:44;19.40;99.90
44271;DHT22;29963;44.594;11.368;2023-08-07T05:52:10;19.50;99.90
44271;DHT22;29963;44.594;11.368;2023-08-07T05:54:35;19.50;99.90
44271;DHT22;29963;44.594;11.368;2023-08-07T05:57:01;19.60;99.90
44271;DHT22;29963;44.594;11.368;2023-08-07T05:59:27;19.60;99.90
44271;DHT22;29963;44.594;11.368;2023-08-07T06:01:53;19.60;99.90
44271;DHT22;29963;44.594;11.368;2023-08-07T06:04:19;19.60;99.90
44271;DHT22;29963;44.594;11.368;2023-08-07T06:06:44;19.60;99.90
44271;DHT22;29963;44.594;11.368;2023-08-07T06:09:11;19.70;99.90
44271;DHT22;29963;44.594;11.368;2023-08-07T06:11:37;19.90;99.90
44271;DHT22;29963;44.594;11.368;2023-08-07T06:14:03;20.00;99.90
44271;DHT22;29963;44.594;11.368;2023-08-07T06:16:29;20.10;99.90
44271;DHT22;29963;44.594;11.368;2023-08-07T06:18:54;20.20;99.90
44271;DHT22;29963;44.594;11.368;2023-08-07T06:21:20;20.20;99.90
44271;DHT22;29963;44.594;11.368;2023-08-07T06:23:46;20.20;99.90
44271;DHT22;29963;44.594;11.368;2023-08-07T06:26:12;20.20;99.90
44271;DHT22;29963;44.594;11.368;2023-08-07T06:28:38;20.30;99.90
44271;DHT22;29963;44.594;11.368;2023-08-07T06:31:06;20.30;99.90
44271;DHT22;29963;44.594;11.368;2023-08-07T06:33:32;20.40;99.90
44271;DHT22;29963;44.594;11.368;2023-08-07T06:35:59;20.30;99.90
44271;DHT22;29963;44.594;11.368;2023-08-07T06:38:24;20.30;99.90
44271;DHT22;29963;44.594;11.368;2023-08-07T06:40:50;20.30;99.90
44271;DHT22;29963;44.594;11.368;2023-08-07T06:43:16;20.30;99.90
44271;DHT22;29963;44.594;11.368;2023-08-07T06:45:42;20.40;99.90
44271;DHT22;29963;44.594;11.368;2023-08-07T06:48:07;20.30;99.90
44271;DHT22;29963;44.594;11.368;2023-08-07T06:50:33;20.30;99.90
44271;DHT22;29963;44.594;11.368;2023-08-07T06:52:59;20.30;99.90
44271;DHT22;29963;44.594;11.368;2023-08-07T06:55:25;20.40;99.90
44271;DHT22;29963;44.594;11.368;2023-08-07T06:57:50;20.40;99.90
44271;DHT22;29963;44.594;11.368;2023-08-07T07:00:16;20.50;99.90
44271;DHT22;29963;44.594;11.368;2023-08-07T07:02:42;20.60;99.90
44271;DHT22;29963;44.594;11.368;2023-08-07T07:05:08;20.60;99.90
44271;DHT22;29963;44.594;11.368;2023-08-07T07:07:33;20.70;99.90
44271;DHT22;29963;44.594;11.368;2023-08-07T07:09:59;20.70;99.90
44271;DHT22;29963;44.594;11.368;2023-08-07T07:12:26;20.70;99.90
44271;DHT22;29963;44.594;11.368;2023-08-07T07:14:52;20.70;99.90
44271;DHT22;29963;44.594;11.368;2023-08-07T07:17:18;20.80;99.90
44271;DHT22;29963;44.594;11.368;2023-08-07T07:19:43;20.80;99.90
44271;DHT22;29963;44.594;11.368;2023-08-07T07:22:09;20.80;99.90
44271;DHT22;29963;44.594;11.368;2023-08-07T07:24:35;20.80;99.90
44271;DHT22;29963;44.594;11.368;2023-08-07T07:27:00;20.90;99.90
44271;DHT22;29963;44.594;11.368;2023-08-07T07:29:26;20.90;99.90
44271;DHT22;29963;44.594;11.368;2023-08-07T07:31:52;20.90;99.90
44271;DHT22;29963;44.594;11.368;2023-08-07T07:34:19;20.90;99.90
44271;DHT22;29963;44.594;11.368;2023-08-07T07:36:44;20.90;99.90
44271;DHT22;29963;44.594;11.368;2023-08-07T07:39:10;21.10;99.90
44271;DHT22;29963;44.594;11.368;2023-08-07T07:41:36;21.20;99.90
44271;DHT22;29963;44.594;11.368;2023-08-07T07:44:02;21.30;99.90
44271;DHT22;29963;44.594;11.368;2023-08-07T07:46:28;21.30;99.90
44271;DHT22;29963;44.594;11.368;2023-08-07T07:48:53;21.40;99.90
44271;DHT22;29963;44.594;11.368;2023-08-07T07:51:19;21.50;99.90
44271;DHT22;29963;44.594;11.368;2023-08-07T07:53:45;21.60;99.40
44271;DHT22;29963;44.594;11.368;2023-08-07T07:56:10;21.70;99.70
44271;DHT22;29963;44.594;11.368;2023-08-07T07:58:36;21.70;99.80
44271;DHT22;29963;44.594;11.368;2023-08-07T08:01:02;21.90;98.80
44271;DHT22;29963;44.594;11.368;2023-08-07T08:03:27;22.00;99.20
44271;DHT22;29963;44.594;11.368;2023-08-07T08:05:53;22.10;97.80
44271;DHT22;29963;44.594;11.368;2023-08-07T08:08:19;22.10;96.50
44271;DHT22;29963;44.594;11.368;2023-08-07T08:10:47;22.20;95.80
44271;DHT22;29963;44.594;11.368;2023-08-07T08:13:14;22.20;96.60
44271;DHT22;29963;44.594;11.368;2023-08-07T08:15:41;22.10;96.00
44271;DHT22;29963;44.594;11.368;2023-08-07T08:18:06;22.10;95.30
44271;DHT22;29963;44.594;11.368;2023-08-07T08:20:32;22.10;96.50
44271;DHT22;29963;44.594;11.368;2023-08-07T08:22:58;22.20;97.30
44271;DHT22;29963;44.594;11.368;2023-08-07T08:25:24;22.30;94.70
44271;DHT22;29963;44.594;11.368;2023-08-07T08:27:49;22.30;94.40
44271;DHT22;29963;44.594;11.368;2023-08-07T08:30:18;22.30;94.20
44271;DHT22;29963;44.594;11.368;2023-08-07T08:32:43;22.40;94.30
44271;DHT22;29963;44.594;11.368;2023-08-07T08:35:09;22.50;93.50
44271;DHT22;29963;44.594;11.368;2023-08-07T08:37:35;22.60;92.80
44271;DHT22;29963;44.594;11.368;2023-08-07T08:40:01;22.70;91.80
44271;DHT22;29963;44.594;11.368;2023-08-07T08:42:27;22.80;91.60
44271;DHT22;29963;44.594;11.368;2023-08-07T08:44:56;22.80;91.80
44271;DHT22;29963;44.594;11.368;2023-08-07T08:47:24;22.90;91.00
44271;DHT22;29963;44.594;11.368;2023-08-07T08:50:02;23.00;91.50
44271;DHT22;29963;44.594;11.368;2023-08-07T08:52:31;23.00;91.60
44271;DHT22;29963;44.594;11.368;2023-08-07T08:54:58;23.10;91.80
44271;DHT22;29963;44.594;11.368;2023-08-07T08:57:27;23.20;91.40
44271;DHT22;29963;44.594;11.368;2023-08-07T08:59:55;23.20;91.90
44271;DHT22;29963;44.594;11.368;2023-08-07T09:02:22;23.30;92.50
44271;DHT22;29963;44.594;11.368;2023-08-07T09:04:47;23.30;92.40
44271;DHT22;29963;44.594;11.368;2023-08-07T09:07:14;23.30;92.60
44271;DHT22;29963;44.594;11.368;2023-08-07T09:09:41;23.40;93.00
44271;DHT22;29963;44.594;11.368;2023-08-07T09:12:16;23.40;93.00
44271;DHT22;29963;44.594;11.368;2023-08-07T09:14:45;23.40;93.80
44271;DHT22;29963;44.594;11.368;2023-08-07T09:17:14;23.40;94.10
44271;DHT22;29963;44.594;11.368;2023-08-07T09:19:40;23.50;94.40
44271;DHT22;29963;44.594;11.368;2023-08-07T09:22:06;23.60;93.70
44271;DHT22;29963;44.594;11.368;2023-08-07T09:24:32;23.60;93.90
44271;DHT22;29963;44.594;11.368;2023-08-07T09:26:58;23.70;93.70
44271;DHT22;29963;44.594;11.368;2023-08-07T09:29:24;23.70;94.50
44271;DHT22;29963;44.594;11.368;2023-08-07T09:31:49;23.70;93.90
44271;DHT22;29963;44.594;11.368;2023-08-07T09:34:19;23.70;93.50
44271;DHT22;29963;44.594;11.368;2023-08-07T09:36:45;23.80;93.40
44271;DHT22;29963;44.594;11.368;2023-08-07T09:39:11;23.90;93.80
44271;DHT22;29963;44.594;11.368;2023-08-07T09:41:37;24.00;93.70
44271;DHT22;29963;44.594;11.368;2023-08-07T09:44:09;24.00;93.50
44271;DHT22;29963;44.594;11.368;2023-08-07T09:46:43;24.10;93.20
44271;DHT22;29963;44.594;11.368;2023-08-07T09:49:10;24.10;92.30
44271;DHT22;29963;44.594;11.368;2023-08-07T09:51:43;24.20;92.20
44271;DHT22;29963;44.594;11.368;2023-08-07T09:54:09;24.20;92.20
44271;DHT22;29963;44.594;11.368;2023-08-07T09:56:41;24.30;91.30
44271;DHT22;29963;44.594;11.368;2023-08-07T09:59:08;24.20;90.20
44271;DHT22;29963;44.594;11.368;2023-08-07T10:01:36;24.30;91.10
44271;DHT22;29963;44.594;11.368;2023-08-07T10:04:05;24.40;90.20
44271;DHT22;29963;44.594;11.368;2023-08-07T10:06:31;24.50;90.80
44271;DHT22;29963;44.594;11.368;2023-08-07T10:08:57;24.60;88.60
44271;DHT22;29963;44.594;11.368;2023-08-07T10:11:23;24.60;84.90
44271;DHT22;29963;44.594;11.368;2023-08-07T10:13:49;24.60;85.30
44271;DHT22;29963;44.594;11.368;2023-08-07T10:16:15;24.60;85.20
44271;DHT22;29963;44.594;11.368;2023-08-07T10:18:41;24.50;86.20
44271;DHT22;29963;44.594;11.368;2023-08-07T10:21:07;24.60;81.50
44271;DHT22;29963;44.594;11.368;2023-08-07T10:23:35;24.70;82.10
44271;DHT22;29963;44.594;11.368;2023-08-07T10:26:04;24.80;77.40
44271;DHT22;29963;44.594;11.368;2023-08-07T10:28:32;24.80;77.10
44271;DHT22;29963;44.594;11.368;2023-08-07T10:33:25;24.90;73.20
44271;DHT22;29963;44.594;11.368;2023-08-07T10:35:52;24.80;72.80
44271;DHT22;29963;44.594;11.368;2023-08-07T10:38:19;24.80;72.20
44271;DHT22;29963;44.594;11.368;2023-08-07T10:43:29;24.80;73.10
44271;DHT22;29963;44.594;11.368;2023-08-07T10:51:05;25.00;71.80
44271;DHT22;29963;44.594;11.368;2023-08-07T10:53:36;25.00;71.90
44271;DHT22;29963;44.594;11.368;2023-08-07T10:56:08;25.10;70.60
44271;DHT22;29963;44.594;11.368;2023-08-07T10:58:39;25.10;73.00
44271;DHT22;29963;44.594;11.368;2023-08-07T11:01:40;25.10;69.80
44271;DHT22;29963;44.594;11.368;2023-08-07T11:04:10;25.20;71.40
44271;DHT22;29963;44.594;11.368;2023-08-07T11:06:37;25.30;71.60
44271;DHT22;29963;44.594;11.368;2023-08-07T11:09:08;25.30;70.90
44271;DHT22;29963;44.594;11.368;2023-08-07T11:11:38;25.30;72.50
44271;DHT22;29963;44.594;11.368;2023-08-07T11:14:07;25.40;73.60
44271;DHT22;29963;44.594;11.368;2023-08-07T11:16:36;25.50;69.80
44271;DHT22;29963;44.594;11.368;2023-08-07T11:19:02;25.50;69.30
44271;DHT22;29963;44.594;11.368;2023-08-07T11:21:30;25.50;69.80
44271;DHT22;29963;44.594;11.368;2023-08-07T11:23:56;25.50;69.40
44271;DHT22;29963;44.594;11.368;2023-08-07T11:26:21;25.50;67.60
44271;DHT22;29963;44.594;11.368;2023-08-07T11:28:49;25.40;67.60
44271;DHT22;29963;44.594;11.368;2023-08-07T11:31:14;25.40;67.50
44271;DHT22;29963;44.594;11.368;2023-08-07T11:33:40;25.40;67.60
44271;DHT22;29963;44.594;11.368;2023-08-07T11:36:15;25.40;69.80
44271;DHT22;29963;44.594;11.368;2023-08-07T11:38:42;25.50;69.20
44271;DHT22;29963;44.594;11.368;2023-08-07T11:41:12;25.50;70.20
44271;DHT22;29963;44.594;11.368;2023-08-07T11:43:38;25.60;66.70
44271;DHT22;29963;44.594;11.368;2023-08-07T11:46:06;25.60;66.30
44271;DHT22;29963;44.594;11.368;2023-08-07T11:48:34;25.60;64.90
44271;DHT22;29963;44.594;11.368;2023-08-07T11:51:01;25.60;63.60
44271;DHT22;29963;44.594;11.368;2023-08-07T11:53:32;25.60;65.10
44271;DHT22;29963;44.594;11.368;2023-08-07T11:56:00;25.70;63.40
44271;DHT22;29963;44.594;11.368;2023-08-07T11:58:27;25.80;61.20
44271;DHT22;29963;44.594;11.368;2023-08-07T12:00:58;25.80;61.50
44271;DHT22;29963;44.594;11.368;2023-08-07T12:04:17;25.80;58.80
44271;DHT22;29963;44.594;11.368;2023-08-07T12:06:17;25.90;58.70
44271;DHT22;29963;44.594;11.368;2023-08-07T12:08:42;25.90;58.80
44271;DHT22;29963;44.594;11.368;2023-08-07T12:11:12;25.90;58.10
44271;DHT22;29963;44.594;11.368;2023-08-07T12:13:40;25.80;57.40
44271;DHT22;29963;44.594;11.368;2023-08-07T12:16:06;25.80;58.00
44271;DHT22;29963;44.594;11.368;2023-08-07T12:18:32;25.90;57.60
44271;DHT22;29963;44.594;11.368;2023-08-07T12:21:00;26.00;56.90
44271;DHT22;29963;44.594;11.368;2023-08-07T12:23:26;25.90;54.40
44271;DHT22;29963;44.594;11.368;2023-08-07T12:25:52;26.00;56.00
44271;DHT22;29963;44.594;11.368;2023-08-07T12:28:18;26.00;57.50
44271;DHT22;29963;44.594;11.368;2023-08-07T12:30:45;26.10;56.50
44271;DHT22;29963;44.594;11.368;2023-08-07T12:33:14;26.10;55.90
44271;DHT22;29963;44.594;11.368;2023-08-07T12:35:40;26.10;56.20
44271;DHT22;29963;44.594;11.368;2023-08-07T12:38:07;26.10;56.00
44271;DHT22;29963;44.594;11.368;2023-08-07T12:40:33;26.10;56.30
44271;DHT22;29963;44.594;11.368;2023-08-07T12:43:02;26.10;57.10
44271;DHT22;29963;44.594;11.368;2023-08-07T12:45:27;26.20;57.80
44271;DHT22;29963;44.594;11.368;2023-08-07T12:47:53;26.20;55.10
44271;DHT22;29963;44.594;11.368;2023-08-07T12:50:19;26.10;56.40
44271;DHT22;29963;44.594;11.368;2023-08-07T12:52:44;26.30;55.90
44271;DHT22;29963;44.594;11.368;2023-08-07T12:55:10;26.30;55.80
44271;DHT22;29963;44.594;11.368;2023-08-07T12:57:37;26.40;56.80
44271;DHT22;29963;44.594;11.368;2023-08-07T13:00:04;26.30;55.10
44271;DHT22;29963;44.594;11.368;2023-08-07T13:02:29;26.30;54.60
44271;DHT22;29963;44.594;11.368;2023-08-07T13:04:55;26.20;54.90
44271;DHT22;29963;44.594;11.368;2023-08-07T13:07:22;26.20;53.80
44271;DHT22;29963;44.594;11.368;2023-08-07T13:09:48;26.20;54.10
44271;DHT22;29963;44.594;11.368;2023-08-07T13:12:13;26.30;54.00
44271;DHT22;29963;44.594;11.368;2023-08-07T13:14:39;26.30;54.20
44271;DHT22;29963;44.594;11.368;2023-08-07T13:17:05;26.40;51.40
44271;DHT22;29963;44.594;11.368;2023-08-07T13:19:30;26.50;51.20
44271;DHT22;29963;44.594;11.368;2023-08-07T13:21:56;26.50;51.60
44271;DHT22;29963;44.594;11.368;2023-08-07T13:24:21;26.70;50.00
44271;DHT22;29963;44.594;11.368;2023-08-07T13:26:47;26.80;49.70
44271;DHT22;29963;44.594;11.368;2023-08-07T13:29:14;26.80;49.80
44271;DHT22;29963;44.594;11.368;2023-08-07T13:31:40;26.70;48.20
44271;DHT22;29963;44.594;11.368;2023-08-07T13:34:11;26.70;50.00
44271;DHT22;29963;44.594;11.368;2023-08-07T13:36:37;26.80;50.30
44271;DHT22;29963;44.594;11.368;2023-08-07T13:39:04;26.80;50.00
44271;DHT22;29963;44.594;11.368;2023-08-07T13:41:30;26.90;50.00
44271;DHT22;29963;44.594;11.368;2023-08-07T13:43:56;26.90;50.90
44271;DHT22;29963;44.594;11.368;2023-08-07T13:46:22;27.00;48.50
44271;DHT22;29963;44.594;11.368;2023-08-07T13:48:47;27.10;49.40
44271;DHT22;29963;44.594;11.368;2023-08-07T13:51:16;27.10;50.00
44271;DHT22;29963;44.594;11.368;2023-08-07T13:53:43;27.30;49.60
44271;DHT22;29963;44.594;11.368;2023-08-07T13:56:09;27.30;50.70
44271;DHT22;29963;44.594;11.368;2023-08-07T13:58:41;27.40;50.90
44271;DHT22;29963;44.594;11.368;2023-08-07T14:01:08;27.50;50.30
44271;DHT22;29963;44.594;11.368;2023-08-07T14:03:33;27.60;51.30
44271;DHT22;29963;44.594;11.368;2023-08-07T14:05:59;27.70;50.00
44271;DHT22;29963;44.594;11.368;2023-08-07T14:08:25;27.70;50.40
44271;DHT22;29963;44.594;11.368;2023-08-07T14:10:51;27.70;49.70
44271;DHT22;29963;44.594;11.368;2023-08-07T14:13:16;27.80;49.40
44271;DHT22;29963;44.594;11.368;2023-08-07T14:15:42;27.80;49.60
44271;DHT22;29963;44.594;11.368;2023-08-07T14:18:07;27.90;50.10
44271;DHT22;29963;44.594;11.368;2023-08-07T14:20:34;28.20;48.80
44271;DHT22;29963;44.594;11.368;2023-08-07T14:23:00;28.30;47.00
44271;DHT22;29963;44.594;11.368;2023-08-07T14:25:26;28.40;49.00
44271;DHT22;29963;44.594;11.368;2023-08-07T14:27:51;28.50;48.20
44271;DHT22;29963;44.594;11.368;2023-08-07T14:30:17;28.60;48.90
44271;DHT22;29963;44.594;11.368;2023-08-07T14:32:43;28.80;49.50
44271;DHT22;29963;44.594;11.368;2023-08-07T14:35:09;29.00;49.20
44271;DHT22;29963;44.594;11.368;2023-08-07T14:37:34;29.20;49.60
44271;DHT22;29963;44.594;11.368;2023-08-07T14:40:01;29.40;49.50
44271;DHT22;29963;44.594;11.368;2023-08-07T14:42:27;29.50;50.20
44271;DHT22;29963;44.594;11.368;2023-08-07T14:44:52;29.80;51.20
44271;DHT22;29963;44.594;11.368;2023-08-07T14:47:18;30.00;51.80
44271;DHT22;29963;44.594;11.368;2023-08-07T14:49:44;30.10;49.90
44271;DHT22;29963;44.594;11.368;2023-08-07T14:52:09;30.10;50.20
44271;DHT22;29963;44.594;11.368;2023-08-07T14:54:35;30.30;51.30
44271;DHT22;29963;44.594;11.368;2023-08-07T14:57:00;30.40;49.60
44271;DHT22;29963;44.594;11.368;2023-08-07T14:59:26;30.50;49.50
44271;DHT22;29963;44.594;11.368;2023-08-07T15:01:52;30.40;47.60
44271;DHT22;29963;44.594;11.368;2023-08-07T15:04:17;30.20;48.60
44271;DHT22;29963;44.594;11.368;2023-08-07T15:06:43;30.30;48.80
44271;DHT22;29963;44.594;11.368;2023-08-07T15:09:12;30.40;49.30
44271;DHT22;29963;44.594;11.368;2023-08-07T15:11:37;30.70;48.30
44271;DHT22;29963;44.594;11.368;2023-08-07T15:14:03;31.00;46.30
44271;DHT22;29963;44.594;11.368;2023-08-07T15:16:30;30.90;47.00
44271;DHT22;29963;44.594;11.368;2023-08-07T15:18:56;31.30;46.00
44271;DHT22;29963;44.594;11.368;2023-08-07T15:21:21;31.30;47.40
44271;DHT22;29963;44.594;11.368;2023-08-07T15:23:47;31.40;45.80
44271;DHT22;29963;44.594;11.368;2023-08-07T15:26:13;31.80;46.80